Time;durP1;ratioP1;P1;durP2;ratioP2;P2;SDS_P1;SDS_P2;PMS_P1;PMS_P2;Temp;Humidity;BMP_temperature;BMP_pressure;BME280_temperature;BME280_humidity;BME280_pressure;Samples;Min_cycle;Max_cycle;Signal;HPM_P1;HPM_P2
2022/02/09 00:00:39;;;;;;;7.53;2.70;;;;;;;;;;5050381;28;20174;-67
2022/02/09 00:03:14;;;;;;;5.37;2.73;;;;;;;;;;5050891;28;20198;-68
2022/02/09 00:05:48;;;;;;;7.20;2.60;;;;;;;;;;5052407;28;20180;-67
2022/02/09 00:08:14;;;;;;;5.00;2.60;;;;;;;;;;5050356;28;20224;-68
2022/02/09 00:10:42;;;;;;;6.80;3.20;;;;;;;;;;5051338;28;20185;-67
2022/02/09 00:13:38;;;;;;;7.77;2.77;;;;;;;;;;5050401;28;20240;-68
2022/02/09 00:18:46;;;;;;;3.93;2.53;;;;;;;;;;5048783;28;20240;-67
2022/02/09 00:27:06;;;;;;;10.43;4.30;;;;;;;;;;5040347;28;20199;-67
2022/02/09 00:40:02;;;;;;;6.40;3.93;;;;;;;;;;5051534;28;20181;-68
2022/02/09 01:57:45;;;;;;;6.60;5.27;;;;;;;;;;5044974;28;20192;-70
2022/02/09 02:00:10;;;;;;;8.73;5.53;;;;;;;;;;5048544;28;20217;-70
2022/02/09 02:02:35;;;;;;;10.93;6.57;;;;;;;;;;5045112;28;20190;-70
2022/02/09 02:05:00;;;;;;;8.57;5.20;;;;;;;;;;5039825;28;20202;-70
2022/02/09 02:07:37;;;;;;;6.03;5.40;;;;;;;;;;5033441;28;20232;-70
2022/02/09 02:10:07;;;;;;;7.00;5.93;;;;;;;;;;5014312;28;20191;-70
2022/02/09 02:12:36;;;;;;;8.53;5.70;;;;;;;;;;5041226;28;20209;-70
2022/02/09 02:15:25;;;;;;;7.47;6.17;;;;;;;;;;5039662;28;20890;-70
2022/02/09 02:17:49;;;;;;;7.23;5.50;;;;;;;;;;5046568;28;20189;-70
2022/02/09 02:20:31;;;;;;;7.97;6.10;;;;;;;;;;5032154;28;20680;-70
2022/02/09 02:23:30;;;;;;;9.17;6.37;;;;;;;;;;5044923;28;20209;-70
2022/02/09 02:34:04;;;;;;;8.33;6.47;;;;;;;;;;5047374;28;20799;-70
2022/02/09 02:56:57;;;;;;;11.97;8.27;;;;;;;;;;5043273;28;20216;-71
2022/02/09 03:08:10;;;;;;;10.73;9.07;;;;;;;;;;5047516;28;20212;-70
2022/02/09 03:09:33;;;;;;;14.20;9.37;;;;;;;;;;5045416;28;20276;-70
2022/02/09 03:14:16;;;;;;;11.93;10.33;;;;;;;;;;5049811;28;20703;-70
2022/02/09 03:16:48;;;;;;;13.50;10.40;;;;;;;;;;5049400;28;20624;-70
2022/02/09 03:19:37;;;;;;;12.73;9.47;;;;;;;;;;5051902;28;20173;-70
2022/02/09 03:51:41;;;;;;;7.43;6.20;;;;;;;;;;5041065;28;20194;-70
2022/02/09 03:59:09;;;;;;;7.13;5.93;;;;;;;;;;5047802;28;20181;-70
2022/02/09 04:01:38;;;;;;;5.90;4.93;;;;;;;;;;5037120;28;20599;-71
2022/02/09 04:04:03;;;;;;;6.93;5.47;;;;;;;;;;5033932;28;20590;-70
2022/02/09 04:06:33;;;;;;;6.47;5.13;;;;;;;;;;5051676;28;20174;-70
2022/02/09 04:09:00;;;;;;;6.80;5.43;;;;;;;;;;5048369;28;20192;-70
2022/02/09 04:11:31;;;;;;;6.73;5.60;;;;;;;;;;5033330;28;20184;-70
2022/02/09 04:19:05;;;;;;;5.63;4.47;;;;;;;;;;5050537;28;20196;-70
2022/02/09 04:38:04;;;;;;;8.63;6.40;;;;;;;;;;5049927;28;20176;-70
2022/02/09 04:50:29;;;;;;;8.13;6.67;;;;;;;;;;5046249;28;20220;-70
2022/02/09 04:55:47;;;;;;;9.30;7.17;;;;;;;;;;5048853;28;20204;-70
2022/02/09 04:58:29;;;;;;;7.47;6.20;;;;;;;;;;5049690;28;20196;-70
2022/02/09 05:01:10;;;;;;;6.73;6.03;;;;;;;;;;5031768;28;20185;-70
2022/02/09 05:25:14;;;;;;;7.87;7.03;;;;;;;;;;5049632;28;20200;-70
2022/02/09 05:27:52;;;;;;;7.93;6.57;;;;;;;;;;5050089;28;20201;-70
2022/02/09 05:30:17;;;;;;;8.87;7.00;;;;;;;;;;5048832;28;20189;-70
2022/02/09 05:32:43;;;;;;;8.03;7.20;;;;;;;;;;5050491;28;20208;-70
2022/02/09 05:35:08;;;;;;;8.40;7.50;;;;;;;;;;5048456;28;20208;-70
2022/02/09 05:37:34;;;;;;;8.73;7.00;;;;;;;;;;5050009;28;20221;-70
2022/02/09 05:39:59;;;;;;;9.03;7.40;;;;;;;;;;5049064;28;20594;-70
2022/02/09 05:42:25;;;;;;;11.77;8.70;;;;;;;;;;5032183;28;20204;-70
2022/02/09 05:44:50;;;;;;;10.00;8.13;;;;;;;;;;5049956;28;20213;-70
2022/02/09 05:52:42;;;;;;;9.17;7.77;;;;;;;;;;5048175;28;20649;-70
2022/02/09 05:57:51;;;;;;;8.97;7.73;;;;;;;;;;5040706;28;20673;-70
2022/02/09 06:00:17;;;;;;;9.53;8.53;;;;;;;;;;5046741;28;20178;-69
2022/02/09 06:02:43;;;;;;;10.93;8.20;;;;;;;;;;5049955;28;20215;-69
2022/02/09 06:05:08;;;;;;;9.27;7.90;;;;;;;;;;5049056;28;20576;-70
2022/02/09 06:07:33;;;;;;;12.33;9.00;;;;;;;;;;5049274;28;20177;-70
2022/02/09 06:09:58;;;;;;;9.23;8.17;;;;;;;;;;5048793;28;20181;-70
2022/02/09 06:12:33;;;;;;;10.20;8.20;;;;;;;;;;5050260;28;20290;-70
2022/02/09 06:15:31;;;;;;;10.33;7.97;;;;;;;;;;5049253;28;20281;-70
2022/02/09 06:20:33;;;;;;;12.93;7.63;;;;;;;;;;5047727;28;20243;-69
2022/02/09 06:22:59;;;;;;;9.37;7.60;;;;;;;;;;5048147;28;20205;-70
2022/02/09 06:25:24;;;;;;;11.50;7.50;;;;;;;;;;5048392;28;20187;-69
2022/02/09 06:27:50;;;;;;;8.60;7.43;;;;;;;;;;5046044;28;20826;-70
2022/02/09 06:30:15;;;;;;;8.57;7.67;;;;;;;;;;5048461;28;20706;-70
2022/02/09 06:32:40;;;;;;;10.47;7.80;;;;;;;;;;5049375;28;20207;-69
2022/02/09 06:35:06;;;;;;;8.97;7.70;;;;;;;;;;5047815;28;20679;-70
2022/02/09 06:37:46;;;;;;;9.70;8.33;;;;;;;;;;5046884;28;20173;-69
2022/02/09 06:40:14;;;;;;;10.60;8.70;;;;;;;;;;5046414;28;20222;-70
2022/02/09 06:42:39;;;;;;;9.97;8.23;;;;;;;;;;5027778;28;20720;-70
2022/02/09 06:45:18;;;;;;;9.20;7.93;;;;;;;;;;5049517;28;20177;-70
2022/02/09 06:47:43;;;;;;;10.70;8.53;;;;;;;;;;5044970;28;20713;-70
2022/02/09 06:50:15;;;;;;;9.83;8.80;;;;;;;;;;5052491;28;20273;-70
2022/02/09 06:52:45;;;;;;;9.13;8.23;;;;;;;;;;5049397;28;20209;-70
2022/02/09 06:55:15;;;;;;;9.27;8.30;;;;;;;;;;5053808;28;20205;-71
2022/02/09 06:57:58;;;;;;;12.57;8.70;;;;;;;;;;5040426;28;20193;-70
2022/02/09 07:00:23;;;;;;;9.57;8.47;;;;;;;;;;5036344;28;20178;-70
2022/02/09 07:02:49;;;;;;;11.40;9.33;;;;;;;;;;5051360;28;20633;-70
2022/02/09 07:05:14;;;;;;;10.83;7.93;;;;;;;;;;5048928;28;20178;-70
2022/02/09 07:07:40;;;;;;;9.00;8.03;;;;;;;;;;5051741;28;20189;-70
2022/02/09 07:10:06;;;;;;;9.27;8.33;;;;;;;;;;5053127;28;20181;-71
2022/02/09 07:12:31;;;;;;;10.13;8.27;;;;;;;;;;5063743;23;20320;-68
2022/02/09 07:14:57;;;;;;;10.57;8.60;;;;;;;;;;5051292;28;20213;-68
2022/02/09 07:17:22;;;;;;;12.00;9.17;;;;;;;;;;5054695;28;20617;-68
2022/02/09 07:19:57;;;;;;;10.70;8.57;;;;;;;;;;5070373;28;20177;-68
2022/02/09 07:22:25;;;;;;;10.80;8.90;;;;;;;;;;5055568;28;20484;-70
2022/02/09 07:25:01;;;;;;;10.50;7.93;;;;;;;;;;5052535;28;20236;-68
2022/02/09 07:27:39;;;;;;;10.40;8.50;;;;;;;;;;5052839;28;20185;-68
2022/02/09 07:30:05;;;;;;;9.70;7.80;;;;;;;;;;5051291;28;20255;-69
2022/02/09 07:32:30;;;;;;;8.87;7.33;;;;;;;;;;5051003;28;20679;-68
2022/02/09 07:34:55;;;;;;;9.43;7.70;;;;;;;;;;5056502;28;20473;-67
2022/02/09 07:37:21;;;;;;;9.40;8.10;;;;;;;;;;5051003;28;20533;-68
2022/02/09 07:39:46;;;;;;;9.03;7.43;;;;;;;;;;5035808;28;20264;-68
2022/02/09 07:42:19;;;;;;;8.63;7.30;;;;;;;;;;5050515;28;20202;-68
2022/02/09 07:47:43;;;;;;;8.57;6.60;;;;;;;;;;5051691;28;20227;-68
2022/02/09 07:52:53;;;;;;;9.27;7.00;;;;;;;;;;5048535;28;20645;-69
2022/02/09 07:55:18;;;;;;;8.37;7.17;;;;;;;;;;5050951;28;20246;-69
2022/02/09 07:57:43;;;;;;;11.63;8.57;;;;;;;;;;5051679;28;20182;-68
2022/02/09 08:00:10;;;;;;;10.33;8.73;;;;;;;;;;5044721;28;20177;-68
2022/02/09 08:02:35;;;;;;;10.30;9.10;;;;;;;;;;5050043;28;20217;-69
2022/02/09 08:05:00;;;;;;;13.20;9.80;;;;;;;;;;5045534;28;20958;-69
2022/02/09 08:07:27;;;;;;;12.07;9.67;;;;;;;;;;5047271;28;20189;-68
2022/02/09 08:09:52;;;;;;;13.17;9.77;;;;;;;;;;5050707;28;20868;-69
2022/02/09 08:33:40;;;;;;;16.23;9.93;;;;;;;;;;5048705;28;20713;-68
2022/02/09 08:36:05;;;;;;;11.27;9.33;;;;;;;;;;5033753;28;20201;-69
2022/02/09 08:38:31;;;;;;;12.03;10.47;;;;;;;;;;5048810;28;20564;-68
2022/02/09 08:40:56;;;;;;;10.80;9.37;;;;;;;;;;5049835;28;20181;-69
2022/02/09 08:43:22;;;;;;;10.17;8.53;;;;;;;;;;5052231;28;20194;-69
2022/02/09 08:45:47;;;;;;;10.70;9.23;;;;;;;;;;5048383;28;20258;-68
2022/02/09 08:48:13;;;;;;;12.97;10.13;;;;;;;;;;5052020;28;20259;-68
2022/02/09 08:50:38;;;;;;;11.00;9.60;;;;;;;;;;5051701;28;20269;-69
2022/02/09 08:53:04;;;;;;;9.57;8.50;;;;;;;;;;5051584;28;20228;-68
2022/02/09 08:55:29;;;;;;;9.23;8.23;;;;;;;;;;5050059;28;20202;-67
2022/02/09 08:57:54;;;;;;;10.13;8.57;;;;;;;;;;5049880;28;20800;-68
2022/02/09 09:00:27;;;;;;;10.37;8.80;;;;;;;;;;5049313;28;20188;-68
2022/02/09 09:03:07;;;;;;;10.03;8.63;;;;;;;;;;5030955;28;20201;-69
2022/02/09 09:08:48;;;;;;;11.40;9.93;;;;;;;;;;5048803;28;20230;-68
2022/02/09 09:17:20;;;;;;;11.70;9.50;;;;;;;;;;5048696;28;20235;-68
2022/02/09 09:57:59;;;;;;;14.20;9.70;;;;;;;;;;5049443;28;20216;-69
2022/02/09 10:31:02;;;;;;;11.70;9.53;;;;;;;;;;5051215;28;20741;-69
2022/02/09 10:33:53;;;;;;;11.27;9.87;;;;;;;;;;5048499;28;20212;-68
2022/02/09 10:36:20;;;;;;;12.53;9.83;;;;;;;;;;5051406;28;20200;-68
2022/02/09 10:38:45;;;;;;;12.97;10.37;;;;;;;;;;5046611;28;20174;-68
2022/02/09 10:41:14;;;;;;;10.80;9.70;;;;;;;;;;5046205;28;20173;-68
2022/02/09 10:43:41;;;;;;;12.77;10.53;;;;;;;;;;5048086;28;20201;-68
2022/02/09 10:46:10;;;;;;;9.80;8.80;;;;;;;;;;5048630;28;20190;-66
2022/02/09 10:48:40;;;;;;;12.97;9.93;;;;;;;;;;5044632;28;20228;-67
2022/02/09 10:51:28;;;;;;;12.60;9.40;;;;;;;;;;5046927;28;20235;-69
2022/02/09 10:54:02;;;;;;;11.83;10.07;;;;;;;;;;5042675;28;20211;-67
2022/02/09 10:56:29;;;;;;;13.63;9.27;;;;;;;;;;5048080;28;20205;-67
2022/02/09 10:58:55;;;;;;;12.27;9.97;;;;;;;;;;5049326;28;20170;-67
2022/02/09 11:01:21;;;;;;;12.13;9.83;;;;;;;;;;5048342;28;20174;-68
2022/02/09 11:03:50;;;;;;;12.23;10.00;;;;;;;;;;5046914;28;20197;-68
2022/02/09 11:06:16;;;;;;;11.67;9.43;;;;;;;;;;5040653;28;20261;-67
2022/02/09 11:08:41;;;;;;;13.63;10.20;;;;;;;;;;5012616;28;20181;-68
2022/02/09 11:11:06;;;;;;;11.53;10.17;;;;;;;;;;5048649;28;20253;-66
2022/02/09 11:13:32;;;;;;;12.47;10.40;;;;;;;;;;5046852;28;20225;-69
2022/02/09 11:15:57;;;;;;;13.03;10.00;;;;;;;;;;5047177;28;20930;-68
2022/02/09 11:18:23;;;;;;;12.63;10.57;;;;;;;;;;5047795;28;20192;-68
2022/02/09 11:21:06;;;;;;;12.33;10.70;;;;;;;;;;5048114;28;20259;-68
2022/02/09 11:23:41;;;;;;;12.57;10.23;;;;;;;;;;5045156;28;20267;-68
2022/02/09 11:26:27;;;;;;;13.83;10.43;;;;;;;;;;5030506;28;20180;-66
2022/02/09 11:29:17;;;;;;;12.17;9.67;;;;;;;;;;5024683;28;20655;-66
2022/02/09 11:32:00;;;;;;;12.00;9.48;;;;;;;;;;5048897;28;20174;-67
2022/02/09 11:34:26;;;;;;;11.50;9.38;;;;;;;;;;5046742;28;20231;-67
2022/02/09 11:36:52;;;;;;;10.88;9.07;;;;;;;;;;5049497;28;20205;-68
2022/02/09 11:39:37;;;;;;;13.10;9.65;;;;;;;;;;5051927;28;20190;-68
2022/02/09 11:42:23;;;;;;;11.83;9.17;;;;;;;;;;5031347;28;20586;-68
2022/02/09 11:58:47;;;;;;;11.88;9.98;;;;;;;;;;5048496;28;20273;-68
2022/02/09 12:01:41;;;;;;;11.00;9.82;;;;;;;;;;5050787;28;20181;-68
2022/02/09 12:10:15;;;;;;;13.20;10.80;;;;;;;;;;5038961;28;20196;-68
2022/02/09 12:12:42;;;;;;;14.52;11.82;;;;;;;;;;5035950;28;20235;-68
2022/02/09 12:17:49;;;;;;;11.43;10.23;;;;;;;;;;5050388;28;20181;-68
2022/02/09 12:20:23;;;;;;;11.77;10.07;;;;;;;;;;5050378;28;20170;-68
2022/02/09 12:25:46;;;;;;;12.63;10.95;;;;;;;;;;5049930;28;20235;-68
2022/02/09 12:28:22;;;;;;;12.80;11.03;;;;;;;;;;5051757;28;20285;-68
2022/02/09 12:30:48;;;;;;;16.75;11.20;;;;;;;;;;5051049;28;20177;-68
2022/02/09 12:33:20;;;;;;;12.80;10.27;;;;;;;;;;5047557;28;20715;-68
2022/02/09 12:35:45;;;;;;;12.30;10.98;;;;;;;;;;5048817;28;20297;-68
2022/02/09 12:38:10;;;;;;;12.50;11.20;;;;;;;;;;5048445;28;20626;-68
2022/02/09 12:40:38;;;;;;;12.33;11.10;;;;;;;;;;5048502;28;20178;-67
2022/02/09 12:43:04;;;;;;;13.07;11.27;;;;;;;;;;5050560;28;20217;-67
2022/02/09 12:45:31;;;;;;;13.50;12.07;;;;;;;;;;5050265;28;20189;-68
2022/02/09 12:48:00;;;;;;;14.53;10.87;;;;;;;;;;5048085;28;20635;-68
2022/02/09 12:50:40;;;;;;;13.60;9.33;;;;;;;;;;5051400;28;20181;-68
2022/02/09 12:53:05;;;;;;;14.33;10.87;;;;;;;;;;5048565;28;20208;-68
2022/02/09 12:55:37;;;;;;;11.80;9.53;;;;;;;;;;5051898;28;20193;-67
2022/02/09 12:58:05;;;;;;;11.43;9.33;;;;;;;;;;5051835;28;20217;-68
2022/02/09 13:00:34;;;;;;;12.13;10.20;;;;;;;;;;5050673;28;20177;-68
2022/02/09 13:03:01;;;;;;;11.33;8.97;;;;;;;;;;5050577;28;20206;-68
2022/02/09 13:05:27;;;;;;;14.17;10.40;;;;;;;;;;5030439;28;20194;-68
2022/02/09 13:08:02;;;;;;;10.87;8.87;;;;;;;;;;5051075;28;20185;-68
2022/02/09 13:10:32;;;;;;;11.17;9.27;;;;;;;;;;5044074;28;20189;-67
2022/02/09 13:13:04;;;;;;;14.10;9.40;;;;;;;;;;5030496;28;21042;-68
2022/02/09 13:15:34;;;;;;;10.60;9.13;;;;;;;;;;5039965;28;20682;-68
2022/02/09 13:23:49;;;;;;;10.23;9.13;;;;;;;;;;5045444;28;20205;-68
2022/02/09 13:52:07;;;;;;;12.03;9.30;;;;;;;;;;5049253;28;20184;-69
2022/02/09 14:04:06;;;;;;;9.77;8.77;;;;;;;;;;5057661;28;20335;-68
2022/02/09 14:14:12;;;;;;;13.60;10.33;;;;;;;;;;5047462;28;20303;-67
2022/02/09 14:23:36;;;;;;;13.03;9.57;;;;;;;;;;5046713;28;20267;-68
2022/02/09 14:34:18;;;;;;;13.10;9.97;;;;;;;;;;5047091;28;20212;-68
2022/02/09 14:52:14;;;;;;;12.60;9.77;;;;;;;;;;5045826;28;20221;-68
2022/02/09 14:54:46;;;;;;;10.57;8.53;;;;;;;;;;5046113;28;20264;-68
2022/02/09 14:57:19;;;;;;;11.60;9.00;;;;;;;;;;5049128;28;20565;-68
2022/02/09 15:00:02;;;;;;;9.90;8.23;;;;;;;;;;5041486;28;20177;-68
2022/02/09 15:10:20;;;;;;;11.83;8.43;;;;;;;;;;5046356;28;20681;-68
2022/02/09 15:12:57;;;;;;;11.93;9.13;;;;;;;;;;5051675;28;20208;-68
2022/02/09 15:15:30;;;;;;;11.40;8.60;;;;;;;;;;5028549;28;20209;-68
2022/02/09 15:18:29;;;;;;;11.80;9.43;;;;;;;;;;5032565;28;20549;-67
2022/02/09 15:23:32;;;;;;;11.00;9.43;;;;;;;;;;5031095;28;20212;-68
2022/02/09 15:26:00;;;;;;;14.27;9.40;;;;;;;;;;5050276;28;20260;-68
2022/02/09 15:28:25;;;;;;;12.87;9.53;;;;;;;;;;5050111;28;20173;-68
2022/02/09 15:31:03;;;;;;;10.73;9.63;;;;;;;;;;5049958;28;20196;-68
2022/02/09 15:33:36;;;;;;;10.93;9.67;;;;;;;;;;5051933;28;20707;-68
2022/02/09 15:36:02;;;;;;;13.20;9.93;;;;;;;;;;5047964;28;20189;-68
2022/02/09 15:38:38;;;;;;;13.53;10.93;;;;;;;;;;5053097;28;20684;-68
2022/02/09 15:56:14;;;;;;;14.90;10.43;;;;;;;;;;5034774;28;20217;-68
2022/02/09 16:06:25;;;;;;;16.17;10.83;;;;;;;;;;5048893;28;20549;-68
2022/02/09 16:22:13;;;;;;;12.00;9.87;;;;;;;;;;5044245;28;20686;-68
2022/02/09 16:38:17;;;;;;;13.67;9.27;;;;;;;;;;5049890;28;20207;-68
2022/02/09 16:46:16;;;;;;;17.80;8.70;;;;;;;;;;5050026;28;20683;-69
2022/02/09 16:48:50;;;;;;;17.57;8.37;;;;;;;;;;5050368;28;20178;-68
2022/02/09 16:51:19;;;;;;;16.70;8.80;;;;;;;;;;5027726;28;20668;-68
2022/02/09 16:56:42;;;;;;;11.97;8.33;;;;;;;;;;5049969;28;20586;-68
2022/02/09 17:20:40;;;;;;;14.83;9.97;;;;;;;;;;5040941;28;20311;-67
2022/02/09 17:23:05;;;;;;;13.23;8.53;;;;;;;;;;5010802;28;20946;-68
2022/02/09 17:25:31;;;;;;;13.97;9.07;;;;;;;;;;5057976;28;20261;-67
2022/02/09 17:27:56;;;;;;;14.77;9.40;;;;;;;;;;5060501;28;20178;-68
2022/02/09 17:30:57;;;;;;;13.90;9.70;;;;;;;;;;5032645;28;20694;-68
2022/02/09 17:33:37;;;;;;;12.70;8.87;;;;;;;;;;5050161;28;20208;-69
2022/02/09 17:58:06;;;;;;;15.77;8.27;;;;;;;;;;5050690;28;20270;-68
2022/02/09 18:00:19;;;;;;;17.07;9.40;;;;;;;;;;5046029;28;20243;-68
2022/02/09 18:02:46;;;;;;;20.27;8.23;;;;;;;;;;5048823;28;20201;-68
2022/02/09 18:05:18;;;;;;;14.20;9.47;;;;;;;;;;5050122;28;20185;-69
2022/02/09 18:07:46;;;;;;;17.63;8.90;;;;;;;;;;5048758;28;20261;-67
2022/02/09 18:13:47;;;;;;;16.27;9.60;;;;;;;;;;5049163;28;20295;-69
2022/02/09 18:16:04;;;;;;;12.87;8.67;;;;;;;;;;5032134;28;20256;-68
2022/02/09 18:45:37;;;;;;;22.73;12.07;;;;;;;;;;5045221;28;20195;-68
2022/02/09 19:04:08;;;;;;;19.70;11.80;;;;;;;;;;5049102;28;20713;-68
2022/02/09 19:14:43;;;;;;;18.07;12.37;;;;;;;;;;5031657;28;20221;-70
2022/02/09 19:17:21;;;;;;;18.20;11.03;;;;;;;;;;5005014;28;20601;-70
2022/02/09 19:20:44;;;;;;;16.80;10.37;;;;;;;;;;5010886;28;20188;-70
2022/02/09 19:30:53;;;;;;;16.20;9.50;;;;;;;;;;5032872;28;20189;-70
2022/02/09 19:40:31;;;;;;;18.33;10.27;;;;;;;;;;5032250;28;20226;-70
2022/02/09 19:47:02;;;;;;;15.33;10.17;;;;;;;;;;5029166;28;20196;-70
2022/02/09 19:57:12;;;;;;;20.50;10.87;;;;;;;;;;5032441;28;20263;-71
2022/02/09 19:59:39;;;;;;;18.70;10.90;;;;;;;;;;5013270;28;20184;-70
2022/02/09 20:02:08;;;;;;;16.47;9.87;;;;;;;;;;5032547;28;20217;-70
2022/02/09 20:04:34;;;;;;;15.60;9.43;;;;;;;;;;5032462;28;20196;-70
2022/02/09 20:07:00;;;;;;;20.10;10.10;;;;;;;;;;5031888;28;20696;-70
2022/02/09 20:09:26;;;;;;;17.90;10.67;;;;;;;;;;5029544;28;20249;-70
2022/02/09 20:11:55;;;;;;;16.13;9.30;;;;;;;;;;5033208;28;20210;-70
2022/02/09 20:14:20;;;;;;;18.03;10.67;;;;;;;;;;5032928;28;20284;-70
2022/02/09 20:16:45;;;;;;;17.80;10.23;;;;;;;;;;5032885;28;20284;-70
2022/02/09 20:19:12;;;;;;;16.10;10.70;;;;;;;;;;5023987;28;20313;-70
2022/02/09 20:21:37;;;;;;;17.20;10.70;;;;;;;;;;5025197;28;20205;-70
2022/02/09 20:24:04;;;;;;;19.30;10.57;;;;;;;;;;5012222;28;20224;-70
2022/02/09 20:26:29;;;;;;;19.03;11.03;;;;;;;;;;5031242;28;20626;-70
2022/02/09 20:28:57;;;;;;;19.70;11.00;;;;;;;;;;5029680;28;20313;-71
2022/02/09 20:31:28;;;;;;;18.17;11.10;;;;;;;;;;5029592;28;20276;-71
2022/02/09 20:33:56;;;;;;;16.57;11.20;;;;;;;;;;5029519;28;20309;-71
2022/02/09 20:36:22;;;;;;;20.50;12.00;;;;;;;;;;5027300;28;20209;-70
2022/02/09 20:38:52;;;;;;;20.90;11.97;;;;;;;;;;5028594;28;20252;-71
2022/02/09 20:41:19;;;;;;;20.67;13.83;;;;;;;;;;5029533;28;20582;-71
2022/02/09 20:43:58;;;;;;;22.67;14.10;;;;;;;;;;5031100;28;20278;-71
2022/02/09 20:46:26;;;;;;;28.83;13.43;;;;;;;;;;5028889;28;20252;-70
2022/02/09 20:48:51;;;;;;;24.20;13.17;;;;;;;;;;5029834;28;20186;-71
2022/02/09 20:51:16;;;;;;;21.47;13.40;;;;;;;;;;5028832;28;20198;-71
2022/02/09 20:53:41;;;;;;;20.03;12.87;;;;;;;;;;5029741;28;20214;-71
2022/02/09 20:56:07;;;;;;;25.00;12.60;;;;;;;;;;5029387;28;20202;-70
2022/02/09 20:58:35;;;;;;;24.43;13.60;;;;;;;;;;5029693;28;20181;-71
2022/02/09 21:01:06;;;;;;;19.77;12.80;;;;;;;;;;5028395;28;20243;-71
2022/02/09 21:08:34;;;;;;;19.90;12.93;;;;;;;;;;5031643;28;20174;-71
2022/02/09 21:13:56;;;;;;;24.60;13.10;;;;;;;;;;5029507;28;20224;-70
2022/02/09 21:27:00;;;;;;;22.70;14.47;;;;;;;;;;5026678;28;20221;-71
2022/02/09 21:30:49;;;;;;;24.53;14.10;;;;;;;;;;5026267;28;20656;-71
2022/02/09 21:44:22;;;;;;;30.10;16.00;;;;;;;;;;5028738;28;20204;-69
2022/02/09 21:46:29;;;;;;;26.47;16.87;;;;;;;;;;5027469;28;20573;-69
2022/02/09 21:56:28;;;;;;;34.87;20.63;;;;;;;;;;5027053;28;20202;-69
2022/02/09 22:20:56;;;;;;;35.83;21.90;;;;;;;;;;5025244;28;20224;-70
2022/02/09 22:28:32;;;;;;;39.47;22.57;;;;;;;;;;5025076;28;20193;-70
2022/02/09 22:50:12;;;;;;;35.60;22.60;;;;;;;;;;5028347;28;20498;-70
2022/02/09 22:55:18;;;;;;;36.20;22.87;;;;;;;;;;5029449;28;20252;-70
2022/02/09 22:57:51;;;;;;;40.63;24.47;;;;;;;;;;5026917;28;20173;-70
2022/02/09 23:03:20;;;;;;;34.50;21.93;;;;;;;;;;5009443;28;20616;-70
2022/02/09 23:08:51;;;;;;;35.50;21.93;;;;;;;;;;5029921;28;20235;-70
2022/02/09 23:16:39;;;;;;;40.50;25.03;;;;;;;;;;5025035;28;20352;-70
2022/02/09 23:22:35;;;;;;;32.90;22.63;;;;;;;;;;5029809;28;20189;-70
